Time;durP1;ratioP1;P1;durP2;ratioP2;P2;SDS_P1;SDS_P2;PMS_P1;PMS_P2;Temp;Humidity;BMP_temperature;BMP_pressure;BME280_temperature;BME280_humidity;BME280_pressure;Samples;Min_cycle;Max_cycle;Signal;HPM_P1;HPM_P2
2022/02/28 00:01:50;;;;;;;118.07;87.03;;;21.90;97.90;;;;;;4161579;28;20676;-72
2022/02/28 00:03:56;;;;;;;116.32;84.18;;;21.90;98.00;;;;;;4161556;28;20574;-73
2022/02/28 00:06:03;;;;;;;110.57;81.30;;;22.00;97.90;;;;;;4168473;28;20052;-73
2022/02/28 00:08:09;;;;;;;116.68;85.07;;;22.00;97.90;;;;;;4161328;28;20644;-76
2022/02/28 00:10:14;;;;;;;129.07;92.28;;;22.10;97.90;;;;;;4161045;28;20527;-72
2022/02/28 00:12:20;;;;;;;139.32;101.60;;;22.10;97.90;;;;;;4167857;28;20079;-72
2022/02/28 00:14:27;;;;;;;159.13;108.05;;;22.10;97.90;;;;;;4170814;28;20048;-72
2022/02/28 00:16:31;;;;;;;147.55;104.65;;;22.10;98.10;;;;;;4159456;28;20037;-72
2022/02/28 00:18:38;;;;;;;146.60;102.18;;;22.20;98.00;;;;;;4165871;28;20076;-72
2022/02/28 00:20:44;;;;;;;145.65;105.28;;;22.20;97.90;;;;;;4159524;28;20056;-73
2022/02/28 00:22:51;;;;;;;142.38;99.32;;;22.20;98.00;;;;;;4160568;28;20073;-72
2022/02/28 00:24:57;;;;;;;139.85;99.72;;;22.30;97.90;;;;;;4160285;28;20057;-71
2022/02/28 00:27:04;;;;;;;128.95;92.88;;;22.30;97.90;;;;;;4166714;28;21284;-71
2022/02/28 00:29:09;;;;;;;123.38;88.72;;;22.40;97.90;;;;;;4168126;28;20192;-71
2022/02/28 00:31:16;;;;;;;121.07;87.20;;;22.40;97.70;;;;;;4161195;28;20103;-71
2022/02/28 00:33:23;;;;;;;114.88;85.95;;;22.50;97.80;;;;;;4163572;28;20124;-72
2022/02/28 00:35:29;;;;;;;115.88;82.53;;;22.50;97.90;;;;;;4170554;28;20385;-71
2022/02/28 00:37:36;;;;;;;115.28;83.70;;;22.50;98.30;;;;;;4160636;28;20044;-71
2022/02/28 00:39:43;;;;;;;116.03;80.88;;;22.60;97.80;;;;;;4170309;28;20148;-71
2022/02/28 00:41:47;;;;;;;119.03;83.78;;;22.60;97.80;;;;;;4171059;28;20524;-71
2022/02/28 00:43:54;;;;;;;115.20;84.00;;;22.70;98.00;;;;;;4169544;28;20042;-72
2022/02/28 00:46:01;;;;;;;109.70;79.00;;;22.70;98.20;;;;;;4160388;28;21232;-71
2022/02/28 00:48:06;;;;;;;97.88;74.55;;;22.70;98.00;;;;;;4192956;28;20076;-71
2022/02/28 00:50:12;;;;;;;91.07;64.57;;;22.80;97.90;;;;;;4161024;28;20057;-72
2022/02/28 00:52:19;;;;;;;87.00;63.35;;;22.80;97.70;;;;;;4157588;28;20049;-71
2022/02/28 00:54:23;;;;;;;78.25;57.90;;;22.90;97.60;;;;;;4160514;28;20068;-73
2022/02/28 00:56:27;;;;;;;72.30;54.00;;;22.90;97.40;;;;;;4162446;28;20039;-72
2022/02/28 00:58:34;;;;;;;71.35;51.88;;;22.90;97.20;;;;;;4167294;28;20054;-73
2022/02/28 01:00:38;;;;;;;65.95;50.15;;;23.00;97.20;;;;;;4171880;28;20048;-72
2022/02/28 01:02:43;;;;;;;65.43;50.38;;;23.00;97.10;;;;;;4162453;28;20068;-72
2022/02/28 01:04:50;;;;;;;64.15;45.90;;;23.00;96.90;;;;;;4163177;28;21333;-72
2022/02/28 01:06:55;;;;;;;65.05;47.53;;;23.10;97.00;;;;;;4160573;28;20068;-72
2022/02/28 01:09:03;;;;;;;64.30;48.47;;;23.10;96.80;;;;;;4163848;28;20067;-72
2022/02/28 01:11:09;;;;;;;62.05;46.03;;;23.20;96.70;;;;;;4161659;28;20124;-73
2022/02/28 01:13:14;;;;;;;58.40;45.22;;;23.20;96.60;;;;;;4160339;28;20852;-73
2022/02/28 01:15:24;;;;;;;55.65;43.35;;;23.20;96.60;;;;;;4165548;28;20053;-73
2022/02/28 01:17:31;;;;;;;62.95;45.00;;;23.30;96.50;;;;;;4160516;28;20041;-72
2022/02/28 01:19:38;;;;;;;55.08;43.60;;;23.30;96.50;;;;;;4157281;28;20049;-72
2022/02/28 01:21:42;;;;;;;54.03;42.00;;;23.40;96.40;;;;;;4163528;28;20040;-69
2022/02/28 01:23:47;;;;;;;54.90;41.05;;;23.40;96.40;;;;;;4168168;28;20087;-72
2022/02/28 01:25:51;;;;;;;52.92;41.22;;;23.40;96.20;;;;;;4170019;28;20112;-71
2022/02/28 01:27:57;;;;;;;56.55;41.72;;;23.50;96.00;;;;;;4162679;28;20527;-73
2022/02/28 01:30:03;;;;;;;55.20;41.47;;;23.50;95.80;;;;;;4159840;28;20048;-72
2022/02/28 01:32:07;;;;;;;52.03;38.92;;;23.60;95.70;;;;;;4157891;28;20071;-72
2022/02/28 01:34:13;;;;;;;51.63;38.90;;;23.70;95.60;;;;;;4157915;28;20041;-72
2022/02/28 01:36:20;;;;;;;52.50;40.08;;;23.70;95.50;;;;;;4159093;28;20041;-73
2022/02/28 01:38:24;;;;;;;50.08;37.67;;;23.70;95.40;;;;;;4159169;28;20041;-72
2022/02/28 01:40:33;;;;;;;49.22;38.08;;;23.70;95.40;;;;;;4158009;28;20045;-73
2022/02/28 01:42:40;;;;;;;46.83;35.92;;;23.80;95.20;;;;;;4157873;28;20069;-72
2022/02/28 01:44:45;;;;;;;52.10;37.00;;;23.90;95.20;;;;;;4158538;28;20509;-72
2022/02/28 01:46:49;;;;;;;46.08;35.95;;;23.90;95.10;;;;;;4157644;28;20050;-72
2022/02/28 01:49:01;;;;;;;45.67;35.25;;;23.90;95.00;;;;;;4158552;28;20136;-72
2022/02/28 01:51:07;;;;;;;45.20;34.70;;;23.90;94.90;;;;;;4157662;28;20051;-72
2022/02/28 01:53:14;;;;;;;50.40;34.85;;;23.90;94.80;;;;;;4158381;28;20041;-73
2022/02/28 01:55:20;;;;;;;46.33;33.90;;;24.00;94.80;;;;;;4156458;28;20078;-71
2022/02/28 01:57:24;;;;;;;50.50;38.58;;;24.10;94.80;;;;;;4147124;28;20056;-71
2022/02/28 01:59:31;;;;;;;46.00;35.53;;;24.10;94.80;;;;;;4157224;28;20041;-70
2022/02/28 02:01:37;;;;;;;42.35;34.45;;;24.10;94.70;;;;;;4157011;28;20095;-71
2022/02/28 02:03:42;;;;;;;47.60;34.75;;;24.20;94.80;;;;;;4156039;28;20045;-72
2022/02/28 02:05:47;;;;;;;43.47;34.55;;;24.20;94.90;;;;;;4154518;28;20049;-72
2022/02/28 02:07:52;;;;;;;46.70;35.75;;;24.20;94.90;;;;;;4157219;28;20397;-72
2022/02/28 02:09:58;;;;;;;48.22;36.50;;;24.20;94.80;;;;;;4156222;28;20195;-71
2022/02/28 02:12:04;;;;;;;44.60;34.55;;;24.30;94.70;;;;;;4141291;28;20115;-71
2022/02/28 02:14:12;;;;;;;42.03;33.80;;;24.30;94.80;;;;;;4157161;28;20099;-71
2022/02/28 02:16:16;;;;;;;41.20;32.13;;;24.40;94.80;;;;;;4158570;28;20049;-71
2022/02/28 02:18:21;;;;;;;40.67;33.20;;;24.40;94.70;;;;;;4127085;28;20488;-72
2022/02/28 02:20:34;;;;;;;40.45;31.77;;;24.50;94.60;;;;;;4157752;28;20381;-72
2022/02/28 02:22:56;;;;;;;40.83;31.08;;;24.50;94.50;;;;;;4157344;28;20508;-72
2022/02/28 02:25:00;;;;;;;39.17;31.42;;;24.50;94.40;;;;;;4158039;28;20053;-71
2022/02/28 02:27:06;;;;;;;37.85;30.65;;;24.60;94.30;;;;;;4158654;28;20049;-72
2022/02/28 02:29:11;;;;;;;45.65;33.05;;;24.60;94.30;;;;;;4154673;28;20052;-72
2022/02/28 02:31:17;;;;;;;40.83;32.47;;;24.70;94.40;;;;;;4159113;28;20049;-71
2022/02/28 02:33:28;;;;;;;43.25;33.17;;;24.70;94.30;;;;;;4189448;28;20048;-72
2022/02/28 02:35:34;;;;;;;39.33;30.88;;;24.70;94.30;;;;;;4158109;28;20053;-72
2022/02/28 02:37:40;;;;;;;36.97;30.10;;;24.80;94.10;;;;;;4158532;28;20057;-72
2022/02/28 02:39:48;;;;;;;40.60;30.42;;;24.80;94.00;;;;;;4159109;28;20046;-72
2022/02/28 02:41:54;;;;;;;41.00;31.10;;;24.90;93.90;;;;;;4162895;28;20047;-72
2022/02/28 02:44:01;;;;;;;38.50;31.00;;;24.80;93.90;;;;;;4157499;28;20049;-72
2022/02/28 02:46:08;;;;;;;37.75;30.20;;;24.80;93.80;;;;;;4157824;28;20053;-72
2022/02/28 02:48:14;;;;;;;38.00;30.13;;;24.90;93.70;;;;;;4160448;28;20061;-71
2022/02/28 02:50:23;;;;;;;37.85;31.00;;;24.90;93.40;;;;;;4160454;28;20882;-72
2022/02/28 02:52:30;;;;;;;37.65;27.75;;;25.00;93.40;;;;;;4157600;28;20080;-72
2022/02/28 02:54:35;;;;;;;35.25;27.65;;;25.10;93.40;;;;;;4159322;28;20068;-72
2022/02/28 02:56:40;;;;;;;37.13;27.88;;;25.10;93.30;;;;;;4156856;28;20037;-72
2022/02/28 02:58:47;;;;;;;34.70;28.38;;;25.10;93.10;;;;;;4156262;28;20664;-72
2022/02/28 03:00:53;;;;;;;36.17;28.38;;;25.10;92.80;;;;;;4156794;28;20080;-73
2022/02/28 03:03:09;;;;;;;35.80;29.48;;;25.20;92.90;;;;;;4155423;28;20096;-72
2022/02/28 03:05:16;;;;;;;39.33;29.05;;;25.30;92.90;;;;;;4156270;28;20046;-72
2022/02/28 03:07:20;;;;;;;35.00;27.35;;;25.30;92.90;;;;;;4157889;28;20046;-71
2022/02/28 03:09:27;;;;;;;36.50;29.10;;;25.30;93.10;;;;;;4156309;28;20133;-70
2022/02/28 03:11:34;;;;;;;40.08;28.08;;;25.40;93.30;;;;;;4156549;28;20061;-72
2022/02/28 03:13:38;;;;;;;39.75;28.15;;;25.40;93.40;;;;;;4157206;28;20046;-72
2022/02/28 03:15:46;;;;;;;54.58;31.10;;;25.40;93.00;;;;;;4159304;28;20044;-71
2022/02/28 03:17:56;;;;;;;36.38;28.13;;;25.50;92.90;;;;;;4161782;28;20451;-73
2022/02/28 03:20:00;;;;;;;47.38;30.00;;;25.50;92.90;;;;;;4171042;28;20511;-72
2022/02/28 03:22:06;;;;;;;43.22;28.63;;;25.60;92.90;;;;;;4158659;28;20064;-72
2022/02/28 03:24:19;;;;;;;46.80;28.15;;;25.70;92.80;;;;;;4160358;28;20052;-72
2022/02/28 03:26:24;;;;;;;39.80;27.27;;;25.70;92.30;;;;;;4158934;28;20058;-73
2022/02/28 03:28:32;;;;;;;37.80;26.23;;;25.80;92.20;;;;;;4157449;28;20088;-73
2022/02/28 03:30:39;;;;;;;31.80;26.25;;;25.80;92.20;;;;;;4156316;28;20049;-73
2022/02/28 03:32:46;;;;;;;32.03;25.15;;;25.80;92.10;;;;;;4158272;28;21410;-73
2022/02/28 03:34:53;;;;;;;30.70;24.23;;;25.90;92.20;;;;;;4157761;28;20435;-73
2022/02/28 03:36:59;;;;;;;29.90;24.85;;;25.90;92.20;;;;;;4162731;28;20049;-73
2022/02/28 03:39:06;;;;;;;30.30;24.58;;;26.00;92.00;;;;;;4197953;28;21290;-72
2022/02/28 03:41:13;;;;;;;28.75;24.42;;;26.00;91.90;;;;;;4162287;28;20049;-73
2022/02/28 03:43:20;;;;;;;33.67;24.08;;;26.10;92.20;;;;;;4156372;28;20632;-73
2022/02/28 03:45:44;;;;;;;30.05;24.95;;;26.20;92.10;;;;;;4161140;28;20061;-72
2022/02/28 03:47:50;;;;;;;33.13;25.90;;;26.20;91.90;;;;;;4159903;28;20053;-73
2022/02/28 03:50:17;;;;;;;27.30;23.48;;;26.20;91.60;;;;;;4165814;28;20063;-72
2022/02/28 03:52:23;;;;;;;31.05;24.50;;;26.30;91.70;;;;;;4159260;28;20095;-72
2022/02/28 03:54:49;;;;;;;35.58;24.83;;;26.30;91.60;;;;;;4159578;28;20193;-73
2022/02/28 03:56:57;;;;;;;30.80;23.73;;;26.40;91.40;;;;;;4162347;28;20049;-74
2022/02/28 03:59:02;;;;;;;31.55;23.23;;;26.40;91.40;;;;;;4165792;28;20053;-72
2022/02/28 04:01:07;;;;;;;28.80;24.30;;;26.40;91.20;;;;;;4155828;28;20037;-73
2022/02/28 04:03:18;;;;;;;29.02;22.88;;;26.50;91.20;;;;;;4158881;28;20076;-73
2022/02/28 04:05:23;;;;;;;27.55;23.35;;;26.60;91.40;;;;;;4157590;28;20676;-73
2022/02/28 04:07:29;;;;;;;27.67;22.70;;;26.60;91.40;;;;;;4160120;28;20064;-73
2022/02/28 04:09:36;;;;;;;29.88;24.35;;;26.70;91.20;;;;;;4192039;28;20040;-73
2022/02/28 04:11:42;;;;;;;29.35;23.42;;;26.70;90.80;;;;;;4160066;28;20057;-73
2022/02/28 04:13:48;;;;;;;30.90;24.25;;;26.70;90.70;;;;;;4164094;28;20151;-73
2022/02/28 04:15:55;;;;;;;33.13;23.85;;;26.70;90.60;;;;;;4162098;28;20041;-74
2022/02/28 04:18:00;;;;;;;31.10;22.85;;;26.70;90.50;;;;;;4161397;28;20141;-72
2022/02/28 04:20:17;;;;;;;29.08;22.67;;;26.80;90.60;;;;;;4161566;28;20056;-73
2022/02/28 04:22:26;;;;;;;26.17;22.35;;;26.80;90.60;;;;;;4164895;28;20045;-73
2022/02/28 04:24:31;;;;;;;29.70;23.10;;;26.80;90.40;;;;;;4159057;28;20091;-73
2022/02/28 04:26:40;;;;;;;26.33;21.27;;;26.90;89.90;;;;;;4165174;28;20079;-73
2022/02/28 04:28:45;;;;;;;29.25;22.85;;;26.90;89.80;;;;;;4160334;28;20091;-73
2022/02/28 04:30:50;;;;;;;28.60;21.42;;;26.90;89.90;;;;;;4166480;28;20391;-73
2022/02/28 04:32:57;;;;;;;33.88;20.52;;;27.00;90.00;;;;;;4160514;28;20061;-73
2022/02/28 04:35:06;;;;;;;23.63;20.15;;;27.00;90.30;;;;;;4161724;28;20073;-73
2022/02/28 04:37:12;;;;;;;26.80;20.05;;;27.10;89.60;;;;;;4165197;28;20057;-72
2022/02/28 04:39:19;;;;;;;27.23;20.45;;;27.10;89.30;;;;;;4160440;28;20065;-73
2022/02/28 04:41:25;;;;;;;26.17;20.70;;;27.20;88.80;;;;;;4162336;28;20055;-72
2022/02/28 04:43:30;;;;;;;24.15;20.13;;;27.30;89.00;;;;;;4164318;28;20706;-71
2022/02/28 04:45:34;;;;;;;28.30;19.52;;;27.30;89.30;;;;;;4163043;28;20420;-73
2022/02/28 04:47:39;;;;;;;23.77;19.77;;;27.30;89.50;;;;;;4157215;28;20056;-72
2022/02/28 04:49:55;;;;;;;25.77;19.60;;;27.40;89.10;;;;;;4159730;28;20045;-73
2022/02/28 04:52:02;;;;;;;24.17;20.25;;;27.50;88.60;;;;;;4163499;28;20137;-72
2022/02/28 04:54:07;;;;;;;26.05;20.52;;;27.50;88.20;;;;;;4160137;28;21114;-72
2022/02/28 04:56:12;;;;;;;28.17;18.85;;;27.50;86.60;;;;;;4192077;28;20102;-72
2022/02/28 04:58:19;;;;;;;22.52;18.20;;;27.50;85.60;;;;;;4192924;28;20050;-70
2022/02/28 05:00:45;;;;;;;21.80;17.98;;;27.50;85.60;;;;;;4161220;28;20056;-72
2022/02/28 05:02:52;;;;;;;21.45;17.13;;;27.60;85.90;;;;;;4193342;28;20076;-71
2022/02/28 05:05:03;;;;;;;20.98;17.05;;;27.70;86.70;;;;;;4157717;28;20569;-72
2022/02/28 05:07:11;;;;;;;21.13;17.30;;;27.70;86.40;;;;;;4161811;28;20734;-72
2022/02/28 05:09:16;;;;;;;21.48;16.67;;;27.70;85.50;;;;;;4163544;28;20922;-72
2022/02/28 05:11:24;;;;;;;21.25;17.50;;;27.80;85.50;;;;;;4172393;28;20100;-73
2022/02/28 05:16:14;;;;;;;25.08;18.52;;;28.00;85.20;;;;;;4159514;28;20108;-71
2022/02/28 05:18:21;;;;;;;22.65;18.73;;;28.00;84.70;;;;;;4161817;28;20068;-71
2022/02/28 05:20:28;;;;;;;21.58;18.70;;;28.00;85.30;;;;;;4159447;28;20136;-71
2022/02/28 05:22:34;;;;;;;23.33;18.40;;;28.10;85.90;;;;;;4163412;28;20065;-72
2022/02/28 05:24:42;;;;;;;20.63;18.10;;;28.10;84.70;;;;;;4163098;28;20036;-72
2022/02/28 05:26:48;;;;;;;21.40;16.63;;;28.10;85.00;;;;;;4157467;28;20045;-71
2022/02/28 05:28:53;;;;;;;19.90;17.25;;;28.10;85.50;;;;;;4161191;28;20144;-72
2022/02/28 05:30:59;;;;;;;22.40;17.52;;;28.20;84.10;;;;;;4160870;28;20440;-72
2022/02/28 05:33:10;;;;;;;20.15;16.48;;;28.30;84.00;;;;;;4165462;28;20087;-72
2022/02/28 05:35:21;;;;;;;19.50;15.85;;;28.30;83.40;;;;;;4164152;28;20091;-71
2022/02/28 05:37:38;;;;;;;20.85;16.83;;;28.30;83.00;;;;;;4160193;28;20069;-72
2022/02/28 05:39:48;;;;;;;19.00;16.15;;;28.30;82.70;;;;;;4161839;28;20098;-72
2022/02/28 05:41:57;;;;;;;19.60;16.40;;;28.40;82.60;;;;;;4161012;28;20063;-72
2022/02/28 05:44:06;;;;;;;18.50;15.60;;;28.50;83.20;;;;;;4161182;28;20045;-71
2022/02/28 05:46:13;;;;;;;21.33;16.35;;;28.60;83.20;;;;;;4158211;28;20496;-72
2022/02/28 05:48:30;;;;;;;19.85;16.58;;;28.60;83.50;;;;;;4163508;28;20053;-72
2022/02/28 05:50:37;;;;;;;19.33;16.15;;;28.70;83.60;;;;;;4165389;28;20147;-72
2022/02/28 05:53:02;;;;;;;19.55;16.08;;;28.70;83.60;;;;;;4159279;28;20065;-72
2022/02/28 05:55:09;;;;;;;20.70;16.30;;;28.80;83.10;;;;;;4157531;28;20052;-71
2022/02/28 05:57:21;;;;;;;18.90;16.05;;;28.80;83.30;;;;;;4163972;28;20029;-72
2022/02/28 05:59:27;;;;;;;19.85;16.23;;;28.80;83.00;;;;;;4157984;28;20041;-72
2022/02/28 06:01:32;;;;;;;19.05;15.73;;;28.80;82.90;;;;;;4158739;28;20068;-72
2022/02/28 06:03:39;;;;;;;19.55;15.88;;;28.90;82.50;;;;;;4159322;28;20496;-71
2022/02/28 06:05:45;;;;;;;19.67;16.52;;;29.00;82.90;;;;;;4158015;28;20099;-71
2022/02/28 06:07:50;;;;;;;17.92;16.00;;;29.00;82.90;;;;;;4165712;28;20053;-71
2022/02/28 06:09:56;;;;;;;18.80;16.02;;;29.00;82.90;;;;;;4162239;28;20057;-71
2022/02/28 06:12:03;;;;;;;19.17;15.68;;;29.00;80.00;;;;;;4158582;28;20041;-71
2022/02/28 06:14:08;;;;;;;19.92;15.38;;;29.00;80.90;;;;;;4163983;28;20071;-71
2022/02/28 06:16:26;;;;;;;19.10;14.98;;;29.00;81.20;;;;;;4165359;28;20169;-71
2022/02/28 06:18:33;;;;;;;18.40;15.45;;;29.00;81.80;;;;;;4162170;28;20045;-71
2022/02/28 06:20:38;;;;;;;21.58;15.50;;;29.10;82.50;;;;;;4158745;28;20029;-71
2022/02/28 06:22:45;;;;;;;18.20;14.65;;;29.10;81.40;;;;;;4164046;28;20721;-71
2022/02/28 06:24:52;;;;;;;16.23;13.43;;;29.10;80.50;;;;;;4158903;28;20123;-72
2022/02/28 06:26:57;;;;;;;18.70;13.68;;;29.20;79.50;;;;;;4158664;28;20419;-71
2022/02/28 06:29:04;;;;;;;15.18;13.23;;;29.20;79.20;;;;;;4163864;28;20048;-71
2022/02/28 06:31:10;;;;;;;16.55;14.18;;;29.20;78.90;;;;;;4161527;28;20649;-71
2022/02/28 06:33:15;;;;;;;18.52;13.57;;;29.30;79.30;;;;;;4159019;28;20053;-71
2022/02/28 06:35:21;;;;;;;16.92;14.05;;;29.30;79.20;;;;;;4162602;28;20523;-71
2022/02/28 06:37:25;;;;;;;17.85;13.73;;;29.30;79.60;;;;;;4167010;28;20112;-70
2022/02/28 06:39:32;;;;;;;16.20;14.13;;;29.40;78.70;;;;;;4165745;28;20556;-71
2022/02/28 06:41:38;;;;;;;19.52;13.07;;;29.50;79.40;;;;;;4153973;28;20055;-70
2022/02/28 06:43:46;;;;;;;15.57;13.20;;;29.50;78.80;;;;;;4165220;28;20053;-70
2022/02/28 06:45:51;;;;;;;20.73;13.15;;;29.60;78.40;;;;;;4158159;28;20558;-71
2022/02/28 06:47:58;;;;;;;17.63;13.38;;;29.60;77.30;;;;;;4156529;28;20926;-71
2022/02/28 06:50:08;;;;;;;15.45;12.98;;;29.60;77.30;;;;;;4155573;28;20060;-71
2022/02/28 06:52:16;;;;;;;15.13;13.25;;;29.60;77.00;;;;;;4158661;28;20057;-70
2022/02/28 06:54:22;;;;;;;17.48;13.48;;;29.60;77.30;;;;;;4159365;28;20103;-71
2022/02/28 06:56:32;;;;;;;18.75;13.45;;;29.60;77.00;;;;;;4153480;28;20053;-70
2022/02/28 06:58:37;;;;;;;15.93;13.32;;;29.60;77.20;;;;;;4160374;28;20049;-71
2022/02/28 07:00:43;;;;;;;17.00;13.25;;;29.70;77.40;;;;;;4153433;28;20053;-72
2022/02/28 07:03:01;;;;;;;15.40;13.20;;;29.70;77.50;;;;;;4157063;28;20037;-72
2022/02/28 07:05:06;;;;;;;15.80;13.13;;;29.70;77.70;;;;;;4153839;28;20053;-72
2022/02/28 07:07:13;;;;;;;18.40;12.88;;;29.80;77.90;;;;;;4157268;28;20081;-72
2022/02/28 07:09:19;;;;;;;14.20;12.55;;;29.80;75.50;;;;;;4161105;28;20053;-73
2022/02/28 07:11:23;;;;;;;14.65;13.05;;;29.80;76.60;;;;;;4153693;28;20057;-73
2022/02/28 07:13:31;;;;;;;15.05;11.57;;;29.80;77.20;;;;;;4158098;28;20049;-73
2022/02/28 07:15:41;;;;;;;16.27;12.25;;;29.80;76.90;;;;;;4163282;28;20593;-72
2022/02/28 07:17:46;;;;;;;14.95;13.02;;;29.80;76.70;;;;;;4158511;28;20091;-72
2022/02/28 07:19:53;;;;;;;18.35;12.80;;;29.90;76.00;;;;;;4158616;28;20060;-72
2022/02/28 07:21:57;;;;;;;16.23;12.73;;;29.90;76.40;;;;;;4160223;28;20510;-69
2022/02/28 07:24:02;;;;;;;14.43;11.82;;;29.90;76.20;;;;;;4157886;28;20050;-69
2022/02/28 07:26:08;;;;;;;16.58;13.50;;;29.90;76.40;;;;;;4160153;28;20033;-71
2022/02/28 07:28:14;;;;;;;15.35;13.05;;;29.90;76.40;;;;;;4158820;28;20045;-71
2022/02/28 07:30:19;;;;;;;15.80;12.52;;;30.00;75.40;;;;;;4160206;28;20052;-70
2022/02/28 07:32:26;;;;;;;13.63;12.20;;;29.90;76.20;;;;;;4162142;28;20044;-71
2022/02/28 07:34:33;;;;;;;14.02;12.50;;;29.90;77.70;;;;;;4162426;28;20106;-71
2022/02/28 07:36:37;;;;;;;13.98;12.23;;;30.00;77.50;;;;;;4163115;28;20057;-71
2022/02/28 07:38:44;;;;;;;14.20;12.68;;;30.00;77.10;;;;;;4158904;28;20116;-70
2022/02/28 07:40:48;;;;;;;17.13;12.20;;;30.00;77.20;;;;;;4161876;28;20077;-71
2022/02/28 07:42:55;;;;;;;15.63;12.68;;;30.00;77.50;;;;;;4160975;28;20416;-71
2022/02/28 07:45:02;;;;;;;15.50;12.73;;;30.10;77.10;;;;;;4167020;28;20073;-70
2022/02/28 07:47:09;;;;;;;15.35;12.45;;;30.10;76.50;;;;;;4165665;28;20084;-71
2022/02/28 07:49:14;;;;;;;16.63;13.05;;;30.10;76.90;;;;;;4157776;28;20111;-71
2022/02/28 07:51:18;;;;;;;19.30;13.10;;;30.10;77.10;;;;;;4162105;28;20644;-70
2022/02/28 07:53:24;;;;;;;16.83;12.30;;;30.10;77.10;;;;;;4159555;28;20526;-71
2022/02/28 07:55:28;;;;;;;14.52;11.75;;;30.10;77.00;;;;;;4164792;28;21069;-71
2022/02/28 07:57:38;;;;;;;17.05;13.10;;;30.10;76.90;;;;;;4171494;28;20041;-73
2022/02/28 07:59:45;;;;;;;14.15;12.65;;;30.20;76.50;;;;;;4165066;28;20071;-71
2022/02/28 08:01:49;;;;;;;16.15;13.38;;;30.20;76.10;;;;;;4160769;28;20064;-72
2022/02/28 08:03:56;;;;;;;15.02;13.35;;;30.20;75.70;;;;;;4166107;28;20128;-73
2022/02/28 08:06:04;;;;;;;14.88;12.23;;;30.20;75.20;;;;;;4160124;28;20440;-72
2022/02/28 08:08:09;;;;;;;17.08;12.35;;;30.20;75.20;;;;;;4166161;28;20054;-72
2022/02/28 08:10:13;;;;;;;14.02;12.48;;;30.20;75.40;;;;;;4159155;28;20084;-71
2022/02/28 08:12:20;;;;;;;14.13;11.77;;;30.20;75.90;;;;;;4167540;28;20052;-72
2022/02/28 08:14:25;;;;;;;16.00;12.90;;;30.20;76.00;;;;;;4162017;28;20059;-71
2022/02/28 08:16:31;;;;;;;14.02;11.60;;;30.20;75.90;;;;;;4160554;28;20057;-72
2022/02/28 08:18:41;;;;;;;14.50;12.43;;;30.20;76.20;;;;;;4159810;28;20179;-71
2022/02/28 08:20:45;;;;;;;14.18;12.07;;;30.30;76.40;;;;;;4160513;28;20095;-72
2022/02/28 08:22:51;;;;;;;14.23;12.70;;;30.30;76.50;;;;;;4163879;28;20519;-72
2022/02/28 08:24:58;;;;;;;14.52;12.30;;;30.30;76.40;;;;;;4162690;28;20570;-71
2022/02/28 08:27:08;;;;;;;16.92;12.55;;;30.30;76.30;;;;;;4160885;28;20099;-72
2022/02/28 08:29:15;;;;;;;16.65;13.27;;;30.30;75.40;;;;;;4161504;28;20056;-71
2022/02/28 08:31:21;;;;;;;15.63;13.25;;;30.30;75.90;;;;;;4160839;28;20188;-70
2022/02/28 08:33:26;;;;;;;15.65;11.93;;;30.30;75.80;;;;;;4167318;28;20049;-70
2022/02/28 08:35:32;;;;;;;14.55;12.95;;;30.20;75.30;;;;;;4165183;28;20160;-71
2022/02/28 08:37:39;;;;;;;13.32;11.93;;;30.20;75.70;;;;;;4166710;28;20047;-71
2022/02/28 08:39:44;;;;;;;14.65;12.10;;;30.20;76.10;;;;;;4160491;28;20038;-71
2022/02/28 08:41:48;;;;;;;15.98;12.60;;;30.30;76.50;;;;;;4161351;28;20045;-70
2022/02/28 08:43:53;;;;;;;14.05;12.32;;;30.30;75.80;;;;;;4161975;28;20140;-71
2022/02/28 08:45:59;;;;;;;13.35;11.93;;;30.20;76.00;;;;;;4167152;28;20512;-71
2022/02/28 08:48:06;;;;;;;19.70;12.73;;;30.20;76.20;;;;;;4159793;28;20189;-71
2022/02/28 08:50:18;;;;;;;15.57;12.63;;;30.20;76.20;;;;;;4163340;28;20044;-71
2022/02/28 08:52:22;;;;;;;15.73;12.63;;;30.20;75.70;;;;;;4159803;28;20056;-71
2022/02/28 08:54:26;;;;;;;15.65;12.32;;;30.20;76.20;;;;;;4161390;28;20053;-71
2022/02/28 08:56:32;;;;;;;17.33;12.50;;;30.20;76.50;;;;;;4166451;28;20084;-71
2022/02/28 08:58:37;;;;;;;16.23;12.55;;;30.20;77.60;;;;;;4160988;28;20034;-70
2022/02/28 09:00:41;;;;;;;14.07;11.43;;;30.20;77.50;;;;;;4160706;28;20037;-71
2022/02/28 09:02:46;;;;;;;14.23;12.00;;;30.20;77.20;;;;;;4167182;28;20042;-71
2022/02/28 09:04:50;;;;;;;15.25;12.38;;;30.20;76.90;;;;;;4161809;28;20056;-71
2022/02/28 09:06:55;;;;;;;17.90;12.07;;;30.20;76.50;;;;;;4161879;28;20069;-71
2022/02/28 09:09:01;;;;;;;14.70;12.75;;;30.10;76.20;;;;;;4162037;28;20571;-71
2022/02/28 09:11:05;;;;;;;18.23;12.90;;;30.10;76.20;;;;;;4171186;28;20061;-71
2022/02/28 09:13:10;;;;;;;15.75;12.23;;;30.10;76.40;;;;;;4163981;28;20644;-71
2022/02/28 09:15:16;;;;;;;16.10;12.35;;;30.10;76.50;;;;;;4157888;28;20069;-70
2022/02/28 09:17:21;;;;;;;15.10;13.50;;;30.10;76.60;;;;;;4162205;28;20391;-71
2022/02/28 09:19:25;;;;;;;18.95;13.80;;;30.10;77.00;;;;;;4168567;28;20047;-72
2022/02/28 09:21:36;;;;;;;17.25;14.32;;;30.10;77.60;;;;;;4160777;28;20437;-72
2022/02/28 09:23:42;;;;;;;16.63;14.35;;;30.10;77.60;;;;;;4166614;28;20397;-73
2022/02/28 09:25:46;;;;;;;17.27;13.57;;;30.10;77.40;;;;;;4161940;28;20128;-72
2022/02/28 09:27:55;;;;;;;15.40;12.82;;;30.00;77.40;;;;;;4161316;28;20041;-71
2022/02/28 09:29:59;;;;;;;15.50;13.20;;;30.00;77.70;;;;;;4159743;28;20057;-72
2022/02/28 09:32:04;;;;;;;14.57;12.48;;;30.10;77.30;;;;;;4165987;28;20095;-71
2022/02/28 09:34:10;;;;;;;17.95;12.70;;;30.00;77.30;;;;;;4168894;28;20046;-72
2022/02/28 09:36:15;;;;;;;18.98;13.40;;;30.00;77.30;;;;;;4163380;28;20061;-72
2022/02/28 09:38:19;;;;;;;17.35;13.80;;;30.00;77.40;;;;;;4162630;28;20071;-72
2022/02/28 09:40:31;;;;;;;19.63;14.07;;;30.00;77.80;;;;;;4161861;28;20598;-72
2022/02/28 09:42:48;;;;;;;15.60;13.38;;;30.00;78.50;;;;;;4158096;28;20069;-73
2022/02/28 09:45:05;;;;;;;15.75;13.50;;;30.00;78.00;;;;;;4161992;28;20523;-72
2022/02/28 09:47:24;;;;;;;17.52;13.18;;;30.00;78.00;;;;;;4158982;28;20542;-72
2022/02/28 09:49:48;;;;;;;18.15;13.07;;;30.00;78.10;;;;;;4166918;28;20041;-72
2022/02/28 09:52:05;;;;;;;15.00;12.02;;;30.00;78.10;;;;;;4163598;28;20045;-72
2022/02/28 09:54:33;;;;;;;14.60;12.10;;;30.00;78.10;;;;;;4164129;28;20509;-72
2022/02/28 09:56:50;;;;;;;15.30;12.90;;;30.00;78.30;;;;;;4166919;28;20076;-72
2022/02/28 09:59:05;;;;;;;19.65;13.50;;;30.00;78.40;;;;;;4165257;28;20037;-73
2022/02/28 10:01:37;;;;;;;17.73;13.90;;;30.00;78.30;;;;;;4155379;28;20413;-72
2022/02/28 10:03:41;;;;;;;15.55;13.20;;;30.00;78.10;;;;;;4131345;28;20048;-72
2022/02/28 10:05:46;;;;;;;14.55;12.98;;;29.90;77.90;;;;;;4129727;28;20129;-71
2022/02/28 10:07:55;;;;;;;15.20;13.13;;;29.90;78.50;;;;;;4141916;28;20875;-71
2022/02/28 10:10:18;;;;;;;17.80;13.13;;;29.90;78.80;;;;;;4134550;28;20912;-71
2022/02/28 10:12:32;;;;;;;16.73;12.13;;;29.90;79.10;;;;;;4141625;28;20045;-71
2022/02/28 10:14:45;;;;;;;15.18;12.18;;;29.90;79.60;;;;;;4140839;28;20073;-71
2022/02/28 10:16:57;;;;;;;20.73;13.85;;;29.90;79.70;;;;;;4138704;28;20088;-70
2022/02/28 10:19:03;;;;;;;15.18;12.35;;;29.80;79.90;;;;;;4143370;28;20085;-69
2022/02/28 10:21:12;;;;;;;20.17;13.15;;;29.80;79.90;;;;;;4141088;28;20088;-71
2022/02/28 10:23:17;;;;;;;22.52;14.00;;;29.80;79.90;;;;;;4146928;28;20116;-71
2022/02/28 10:25:49;;;;;;;15.93;13.40;;;29.80;79.90;;;;;;4145767;28;20049;-71
2022/02/28 10:28:16;;;;;;;19.92;13.13;;;29.80;80.00;;;;;;4140747;28;20716;-71
2022/02/28 10:30:32;;;;;;;17.38;13.50;;;29.70;80.20;;;;;;4139366;28;20057;-72
2022/02/28 10:32:49;;;;;;;17.52;13.20;;;29.70;80.20;;;;;;4144322;28;20440;-71
2022/02/28 10:37:42;;;;;;;17.60;13.63;;;29.70;80.30;;;;;;4138002;28;20072;-71
2022/02/28 10:39:59;;;;;;;18.65;13.30;;;29.60;80.40;;;;;;4125882;28;20048;-69
2022/02/28 10:42:18;;;;;;;17.20;14.10;;;29.60;80.70;;;;;;4131253;28;20801;-72
2022/02/28 10:44:24;;;;;;;22.67;15.20;;;29.60;81.00;;;;;;4141418;28;20136;-71
2022/02/28 10:46:42;;;;;;;16.75;13.43;;;29.50;81.20;;;;;;4126569;28;20512;-72
2022/02/28 10:49:00;;;;;;;18.55;13.88;;;29.50;81.30;;;;;;4128325;28;20078;-72
2022/02/28 10:51:15;;;;;;;20.33;15.35;;;29.50;81.70;;;;;;4140684;28;20414;-72
2022/02/28 10:53:22;;;;;;;20.00;15.40;;;29.50;82.00;;;;;;4159137;28;20537;-71